createdAt,value
2017-06-17T00:00:26.098Z,2.40
2017-06-17T00:02:53.667Z,2.47
2017-06-17T00:05:22.019Z,2.60
2017-06-17T00:07:49.617Z,2.70
2017-06-17T00:10:17.199Z,3.00
2017-06-17T00:12:44.776Z,2.40
2017-06-17T00:15:12.365Z,2.27
2017-06-17T00:17:39.941Z,2.50
2017-06-17T00:20:07.533Z,2.40
2017-06-17T00:22:35.109Z,3.13
2017-06-17T00:25:02.721Z,2.30
2017-06-17T00:27:31.057Z,2.20
2017-06-17T00:29:58.628Z,2.73
2017-06-17T00:32:26.222Z,2.80
2017-06-17T00:34:53.800Z,2.70
2017-06-17T00:37:21.388Z,2.57
2017-06-17T00:39:48.954Z,2.40
2017-06-17T00:42:16.565Z,2.67
2017-06-17T00:44:44.147Z,2.70
2017-06-17T00:47:11.727Z,2.50
2017-06-17T00:49:39.321Z,2.40
2017-06-17T00:52:07.653Z,2.73
2017-06-17T00:54:35.259Z,2.40
2017-06-17T00:57:02.827Z,2.97
2017-06-17T00:59:30.436Z,2.83
2017-06-17T01:01:58.364Z,3.63
2017-06-17T01:04:25.938Z,2.43
2017-06-17T01:06:53.520Z,2.90
2017-06-17T01:09:21.084Z,2.53
2017-06-17T01:11:48.697Z,3.00
2017-06-17T01:14:16.293Z,2.43
2017-06-17T01:16:43.904Z,2.90
2017-06-17T01:19:11.487Z,4.07
2017-06-17T01:21:39.072Z,2.13
2017-06-17T01:24:06.674Z,2.63
2017-06-17T01:26:35.010Z,2.50
2017-06-17T01:29:02.593Z,2.43
2017-06-17T01:31:30.173Z,2.30
2017-06-17T01:33:57.792Z,3.07
2017-06-17T01:36:25.372Z,2.17
2017-06-17T01:38:52.945Z,2.43
2017-06-17T01:41:21.316Z,3.20
2017-06-17T01:43:48.887Z,2.60
2017-06-17T01:46:17.285Z,3.10
2017-06-17T01:48:44.865Z,2.70
2017-06-17T01:51:12.479Z,2.17
2017-06-17T01:53:40.820Z,2.50
2017-06-17T01:56:08.411Z,2.87
2017-06-17T01:58:36.004Z,2.50
2017-06-17T02:01:03.579Z,2.43
2017-06-17T02:03:31.185Z,3.30
2017-06-17T02:05:58.758Z,2.27
2017-06-17T02:08:27.126Z,2.60
2017-06-17T02:10:54.694Z,2.73
2017-06-17T02:13:23.039Z,3.10
2017-06-17T02:15:50.628Z,2.93
2017-06-17T02:18:18.981Z,2.80
2017-06-17T02:20:46.564Z,2.80
2017-06-17T02:23:14.908Z,3.73
2017-06-17T02:25:42.523Z,2.77
2017-06-17T02:28:10.095Z,3.80
2017-06-17T02:30:37.669Z,3.20
2017-06-17T02:33:05.257Z,3.40
2017-06-17T02:35:32.854Z,3.80
2017-06-17T02:38:00.441Z,3.27
2017-06-17T02:40:28.008Z,3.30
2017-06-17T02:42:55.609Z,3.03
2017-06-17T02:45:23.959Z,2.63
2017-06-17T02:47:51.517Z,3.00
2017-06-17T02:50:19.100Z,3.27
2017-06-17T02:52:47.462Z,2.70
2017-06-17T02:55:15.056Z,3.23
2017-06-17T02:57:43.406Z,2.90
2017-06-17T03:00:11.037Z,2.90
2017-06-17T03:02:38.625Z,3.63
2017-06-17T03:05:06.249Z,3.10
2017-06-17T03:07:33.850Z,3.27
2017-06-17T03:10:01.430Z,3.33
2017-06-17T03:12:29.783Z,2.60
2017-06-17T03:14:59.086Z,3.20
2017-06-17T03:17:26.700Z,3.10
2017-06-17T03:19:54.273Z,3.30
2017-06-17T03:22:21.858Z,2.77
2017-06-17T03:24:49.443Z,3.70
2017-06-17T03:27:17.038Z,2.93
2017-06-17T03:29:44.624Z,3.73
2017-06-17T03:32:12.196Z,3.20
2017-06-17T03:34:39.795Z,3.33
2017-06-17T03:37:07.362Z,3.20
2017-06-17T03:39:34.959Z,3.03
2017-06-17T03:42:02.520Z,2.83
2017-06-17T03:44:30.096Z,3.27
2017-06-17T03:46:58.454Z,3.30
2017-06-17T03:49:26.038Z,3.27
2017-06-17T03:51:54.406Z,2.80
2017-06-17T03:54:21.987Z,2.70
2017-06-17T03:56:50.600Z,3.07
2017-06-17T03:59:18.173Z,3.50
2017-06-17T04:01:45.740Z,3.07
2017-06-17T04:04:13.334Z,3.37
2017-06-17T04:06:41.719Z,2.50
2017-06-17T04:09:10.073Z,3.10
2017-06-17T04:11:37.663Z,2.87
2017-06-17T04:14:05.235Z,2.70
2017-06-17T04:16:32.818Z,2.90
2017-06-17T04:19:00.476Z,2.70
2017-06-17T04:21:28.063Z,3.20
2017-06-17T04:23:55.654Z,2.70
2017-06-17T04:26:24.011Z,3.50
2017-06-17T04:28:51.586Z,3.03
2017-06-17T04:31:19.963Z,3.00
2017-06-17T04:33:48.307Z,2.60
2017-06-17T04:36:15.875Z,3.30
2017-06-17T04:38:43.457Z,3.30
2017-06-17T04:41:11.053Z,2.93
2017-06-17T04:43:38.954Z,2.80
2017-06-17T04:46:06.524Z,3.47
2017-06-17T04:48:34.109Z,3.00
2017-06-17T04:51:01.716Z,4.13
2017-06-17T04:53:29.288Z,3.70
2017-06-17T04:55:56.863Z,3.13
2017-06-17T04:58:24.432Z,3.73
2017-06-17T05:00:52.811Z,4.10
2017-06-17T05:03:20.396Z,3.60
2017-06-17T05:05:47.976Z,3.60
2017-06-17T05:08:15.559Z,3.00
2017-06-17T05:10:43.160Z,3.90
2017-06-17T05:13:11.501Z,3.50
2017-06-17T05:15:39.089Z,3.53
2017-06-17T05:18:06.680Z,3.03
2017-06-17T05:20:34.270Z,3.90
2017-06-17T05:23:01.873Z,4.97
2017-06-17T05:25:29.467Z,4.33
2017-06-17T05:27:57.363Z,4.53
2017-06-17T05:30:24.938Z,5.30
2017-06-17T05:32:52.519Z,3.93
2017-06-17T05:35:20.108Z,4.20
2017-06-17T05:37:47.667Z,4.10
2017-06-17T05:40:15.253Z,2.83
2017-06-17T05:42:42.982Z,3.13
2017-06-17T05:45:10.600Z,2.67
2017-06-17T05:47:38.182Z,3.10
2017-06-17T05:50:05.749Z,3.00
2017-06-17T05:52:33.345Z,2.87
2017-06-17T05:55:00.919Z,3.23
2017-06-17T05:57:28.512Z,2.40
2017-06-17T05:59:56.084Z,3.33
2017-06-17T06:02:23.693Z,2.83
2017-06-17T06:04:51.282Z,2.50
2017-06-17T06:07:19.622Z,2.33
2017-06-17T06:09:47.216Z,2.20
2017-06-17T06:12:15.566Z,2.30
2017-06-17T06:14:43.151Z,2.63
2017-06-17T06:17:11.498Z,2.90
2017-06-17T06:19:39.092Z,2.47
2017-06-17T06:22:07.440Z,2.67
2017-06-17T06:24:35.009Z,2.63
2017-06-17T06:27:02.587Z,2.43
2017-06-17T06:29:30.170Z,2.53
2017-06-17T06:31:57.772Z,2.00
2017-06-17T06:34:25.357Z,2.47
2017-06-17T06:36:53.721Z,2.37
2017-06-17T06:39:21.303Z,2.30
2017-06-17T06:41:48.913Z,1.77
2017-06-17T06:44:16.484Z,2.27
2017-06-17T06:46:44.066Z,2.23
2017-06-17T06:49:11.651Z,2.33
2017-06-17T06:51:39.240Z,2.00
2017-06-17T06:54:06.829Z,2.50
2017-06-17T06:56:34.405Z,2.20
2017-06-17T06:59:01.997Z,2.47
2017-06-17T07:01:29.576Z,2.60
2017-06-17T07:03:57.172Z,2.30
2017-06-17T07:06:24.757Z,2.47
2017-06-17T07:08:52.337Z,2.40
2017-06-17T07:11:19.905Z,2.47
2017-06-17T07:13:47.489Z,2.27
2017-06-17T07:16:15.090Z,2.97
2017-06-17T07:18:43.436Z,2.57
2017-06-17T07:21:11.293Z,3.10
2017-06-17T07:23:38.868Z,2.93
2017-06-17T07:26:06.442Z,3.10
2017-06-17T07:28:34.794Z,3.47
2017-06-17T07:31:02.377Z,3.30
2017-06-17T07:33:30.741Z,2.77
2017-06-17T07:35:58.322Z,3.07
2017-06-17T07:38:26.713Z,2.60
2017-06-17T07:40:54.306Z,3.37
2017-06-17T07:43:21.913Z,3.50
2017-06-17T07:45:50.290Z,2.77
2017-06-17T07:48:18.648Z,2.70
2017-06-17T07:50:46.256Z,2.73
2017-06-17T07:53:13.870Z,2.40
2017-06-17T07:55:41.477Z,2.70
2017-06-17T07:58:09.096Z,2.23
2017-06-17T08:00:36.709Z,2.70
2017-06-17T08:03:04.303Z,2.00
2017-06-17T08:05:31.996Z,2.70
2017-06-17T08:08:00.364Z,2.50
2017-06-17T08:10:28.723Z,4.13
2017-06-17T08:12:56.404Z,3.50
2017-06-17T08:15:24.745Z,2.90
2017-06-17T08:17:52.315Z,2.93
2017-06-17T08:20:19.903Z,2.60
2017-06-17T08:22:48.262Z,2.97
2017-06-17T08:25:16.670Z,2.40
2017-06-17T08:27:44.367Z,2.60
2017-06-17T08:30:11.981Z,3.13
2017-06-17T08:32:39.567Z,2.60
2017-06-17T08:35:07.177Z,2.37
2017-06-17T08:37:34.791Z,2.60
2017-06-17T08:40:02.422Z,3.07
2017-06-17T08:42:30.817Z,2.40
2017-06-17T08:44:58.409Z,3.03
2017-06-17T08:47:26.004Z,2.90
2017-06-17T08:49:53.600Z,2.33
2017-06-17T08:52:21.211Z,3.43
2017-06-17T08:54:48.809Z,2.70
2017-06-17T08:57:16.420Z,3.00
2017-06-17T08:59:44.053Z,3.53
2017-06-17T09:02:11.655Z,3.07
2017-06-17T09:04:39.295Z,2.43
2017-06-17T09:07:06.891Z,2.60
2017-06-17T09:09:35.294Z,2.50
2017-06-17T09:12:02.874Z,2.90
2017-06-17T09:14:30.442Z,2.60
2017-06-17T09:16:58.059Z,2.50
2017-06-17T09:19:25.645Z,2.30
2017-06-17T09:21:53.237Z,2.80
2017-06-17T09:24:20.833Z,2.87
2017-06-17T09:26:48.449Z,2.80
2017-06-17T09:29:16.074Z,2.37
2017-06-17T09:31:43.668Z,2.53
2017-06-17T09:34:11.283Z,2.40
2017-06-17T09:36:38.888Z,2.43
2017-06-17T09:39:06.471Z,2.30
2017-06-17T09:41:34.043Z,2.93
2017-06-17T09:44:01.634Z,2.70
2017-06-17T09:46:29.195Z,2.37
2017-06-17T09:48:56.760Z,2.67
2017-06-17T09:51:24.345Z,2.53
2017-06-17T09:53:51.922Z,2.70
2017-06-17T09:56:19.513Z,2.60
2017-06-17T09:58:47.089Z,2.30
2017-06-17T10:01:14.694Z,2.53
2017-06-17T10:03:42.280Z,2.80
2017-06-17T10:06:09.856Z,3.43
2017-06-17T10:08:37.460Z,2.20
2017-06-17T10:11:05.050Z,2.50
2017-06-17T10:13:33.418Z,2.50
2017-06-17T10:16:00.986Z,2.27
2017-06-17T10:18:29.333Z,2.43
2017-06-17T10:21:02.620Z,2.37
2017-06-17T10:23:30.219Z,2.57
2017-06-17T10:25:58.572Z,2.37
2017-06-17T10:28:26.151Z,2.97
2017-06-17T10:30:54.506Z,1.97
2017-06-17T10:33:22.082Z,2.57
2017-06-17T10:35:50.433Z,2.63
2017-06-17T10:38:18.026Z,2.20
2017-06-17T10:40:45.606Z,2.20
2017-06-17T10:43:13.195Z,2.20
2017-06-17T10:45:40.750Z,2.23
2017-06-17T10:48:08.323Z,2.40
2017-06-17T10:50:35.900Z,2.27
2017-06-17T10:53:03.960Z,2.17
2017-06-17T10:55:31.533Z,2.73
2017-06-17T10:57:59.112Z,2.90
2017-06-17T11:00:26.704Z,2.57
2017-06-17T11:02:55.144Z,2.20
2017-06-17T11:05:23.496Z,2.80
2017-06-17T11:07:51.059Z,2.67
2017-06-17T11:10:18.658Z,2.37
2017-06-17T11:12:46.242Z,2.53
2017-06-17T11:15:13.810Z,1.90
2017-06-17T11:17:41.432Z,2.30
2017-06-17T11:20:09.007Z,2.97
2017-06-17T11:22:36.607Z,2.67
2017-06-17T11:25:04.185Z,2.53
2017-06-17T11:27:31.786Z,2.80
2017-06-17T11:29:59.748Z,2.50
2017-06-17T11:32:27.318Z,3.00
2017-06-17T11:34:54.894Z,3.43
2017-06-17T11:37:22.486Z,2.60
2017-06-17T11:39:50.059Z,3.30
2017-06-17T11:42:18.407Z,2.70
2017-06-17T11:44:45.995Z,2.27
2017-06-17T11:47:13.571Z,2.37
2017-06-17T11:49:41.165Z,2.80
2017-06-17T11:52:08.748Z,2.80
2017-06-17T11:54:38.206Z,2.60
2017-06-17T11:57:05.775Z,2.50
2017-06-17T11:59:33.345Z,2.27
2017-06-17T12:02:00.942Z,2.10
2017-06-17T12:04:28.536Z,2.63
2017-06-17T12:06:56.109Z,2.13
2017-06-17T12:09:23.688Z,2.43
2017-06-17T12:11:51.267Z,2.50
2017-06-17T12:14:18.871Z,2.50
2017-06-17T12:16:46.473Z,2.53
2017-06-17T12:19:14.082Z,2.30
2017-06-17T12:21:41.668Z,2.73
2017-06-17T12:24:09.231Z,2.30
2017-06-17T12:26:36.804Z,2.37
2017-06-17T12:29:04.364Z,1.83
2017-06-17T12:31:31.964Z,2.40
2017-06-17T12:34:00.307Z,2.50
2017-06-17T12:36:27.894Z,2.60
2017-06-17T12:38:56.211Z,2.47
2017-06-17T12:41:23.815Z,2.33
2017-06-17T12:43:51.398Z,2.10
2017-06-17T12:46:19.740Z,2.10
2017-06-17T12:48:47.355Z,2.40
2017-06-17T12:51:14.930Z,2.23
2017-06-17T12:53:42.927Z,2.13
2017-06-17T12:56:10.495Z,2.30
2017-06-17T12:58:38.101Z,1.80
2017-06-17T13:01:05.693Z,2.40
2017-06-17T13:03:33.314Z,2.30
2017-06-17T13:06:00.925Z,2.47
2017-06-17T13:08:28.498Z,2.27
2017-06-17T13:10:56.090Z,1.90
2017-06-17T13:13:23.653Z,2.30
2017-06-17T13:15:51.206Z,2.30
2017-06-17T13:18:18.789Z,2.53
2017-06-17T13:20:46.455Z,1.80
2017-06-17T13:23:14.076Z,2.47
2017-06-17T13:25:41.651Z,2.23
2017-06-17T13:28:09.249Z,1.83
2017-06-17T13:30:36.845Z,1.97
2017-06-17T13:33:04.415Z,1.70
2017-06-17T13:35:31.981Z,2.17
2017-06-17T13:37:59.561Z,2.27
2017-06-17T13:40:27.146Z,1.93
2017-06-17T13:42:54.707Z,1.83
2017-06-17T13:45:22.307Z,2.10
2017-06-17T13:47:49.885Z,2.10
2017-06-17T13:50:17.497Z,1.93
2017-06-17T13:52:45.055Z,2.83
2017-06-17T13:55:12.649Z,2.00
2017-06-17T13:57:40.996Z,1.50
2017-06-17T14:00:08.547Z,2.00
2017-06-17T14:02:36.164Z,1.50
2017-06-17T14:05:03.736Z,1.53
2017-06-17T14:07:31.317Z,1.90
2017-06-17T14:09:58.895Z,1.73
2017-06-17T14:12:26.471Z,1.73
2017-06-17T14:14:54.809Z,2.10
2017-06-17T14:17:22.374Z,1.63
2017-06-17T14:19:49.955Z,1.80
2017-06-17T14:22:23.135Z,2.00
2017-06-17T14:24:50.747Z,1.60
2017-06-17T14:27:18.310Z,1.87
2017-06-17T14:29:45.883Z,1.40
2017-06-17T14:32:13.474Z,1.50
2017-06-17T14:34:41.047Z,1.60
2017-06-17T14:37:09.447Z,1.47
2017-06-17T14:39:37.038Z,1.60
2017-06-17T14:42:04.606Z,1.33
2017-06-17T14:44:32.199Z,1.70
2017-06-17T14:46:59.798Z,1.60
2017-06-17T14:49:27.396Z,1.67
2017-06-17T14:51:54.988Z,1.80
2017-06-17T14:54:22.586Z,1.90
2017-06-17T14:56:50.184Z,1.47
2017-06-17T14:59:17.764Z,1.40
2017-06-17T15:01:46.112Z,1.50
2017-06-17T15:04:13.756Z,1.80
2017-06-17T15:06:41.369Z,1.40
2017-06-17T15:09:08.926Z,1.57
2017-06-17T15:11:36.557Z,1.60
2017-06-17T15:14:04.131Z,1.43
2017-06-17T15:16:32.456Z,1.50
2017-06-17T15:19:00.036Z,1.10
2017-06-17T15:21:27.596Z,2.87
2017-06-17T15:23:55.176Z,1.40
2017-06-17T15:26:22.756Z,1.33
2017-06-17T15:28:51.104Z,1.23
2017-06-17T15:31:18.672Z,1.83
2017-06-17T15:33:46.262Z,1.37
2017-06-17T15:36:13.869Z,1.30
2017-06-17T15:38:41.428Z,1.10
2017-06-17T15:41:09.018Z,1.23
2017-06-17T15:43:37.343Z,1.10
2017-06-17T15:46:05.000Z,1.00
2017-06-17T15:48:32.591Z,1.33
2017-06-17T15:51:00.180Z,1.10
2017-06-17T15:53:28.520Z,1.10
2017-06-17T15:55:56.090Z,1.30
2017-06-17T15:58:23.698Z,1.10
2017-06-17T16:00:51.290Z,1.30
2017-06-17T16:03:18.866Z,1.00
2017-06-17T16:05:46.450Z,0.93
2017-06-17T16:08:14.022Z,0.90
2017-06-17T16:10:41.699Z,1.20
2017-06-17T16:13:09.269Z,1.00
2017-06-17T16:15:36.833Z,1.30
2017-06-17T16:18:04.437Z,1.00
2017-06-17T16:20:32.016Z,1.37
2017-06-17T16:22:59.587Z,1.50
2017-06-17T16:25:27.149Z,1.20
2017-06-17T16:27:54.931Z,1.00
2017-06-17T16:30:22.506Z,1.50
2017-06-17T16:32:50.098Z,1.20
2017-06-17T16:35:18.437Z,1.10
2017-06-17T16:37:46.002Z,1.23
2017-06-17T16:40:13.580Z,1.23
2017-06-17T16:42:41.140Z,1.10
2017-06-17T16:45:08.927Z,1.57
2017-06-17T16:47:37.263Z,1.63
2017-06-17T16:50:04.838Z,1.70
2017-06-17T16:52:32.412Z,1.37
2017-06-17T16:54:59.970Z,1.80
2017-06-17T16:57:28.320Z,1.27
2017-06-17T16:59:55.915Z,1.40
2017-06-17T17:02:23.511Z,1.10
2017-06-17T17:04:51.106Z,1.43
2017-06-17T17:07:18.667Z,1.23
2017-06-17T17:09:46.243Z,1.10
2017-06-17T17:12:13.812Z,1.60
2017-06-17T17:14:41.411Z,1.17
2017-06-17T17:17:08.972Z,1.40
2017-06-17T17:19:36.556Z,1.07
2017-06-17T17:22:04.122Z,1.37
2017-06-17T17:24:31.725Z,1.13
2017-06-17T17:26:59.321Z,1.20
2017-06-17T17:29:27.089Z,1.30
2017-06-17T17:31:54.683Z,1.20
2017-06-17T17:34:22.253Z,2.33
2017-06-17T17:36:49.856Z,1.73
2017-06-17T17:39:17.421Z,1.80
2017-06-17T17:41:45.015Z,2.10
2017-06-17T17:44:12.583Z,2.37
2017-06-17T17:46:40.180Z,1.40
2017-06-17T17:49:07.769Z,1.40
2017-06-17T17:51:35.330Z,1.50
2017-06-17T17:54:02.905Z,1.60
2017-06-17T17:56:31.259Z,1.50
2017-06-17T17:58:58.863Z,1.80
2017-06-17T18:01:26.437Z,1.73
2017-06-17T18:03:54.012Z,1.50
2017-06-17T18:06:21.599Z,1.33
2017-06-17T18:08:49.162Z,2.00
2017-06-17T18:11:16.744Z,2.20
2017-06-17T18:13:45.107Z,1.93
2017-06-17T18:16:12.711Z,1.90
2017-06-17T18:18:40.302Z,1.57
2017-06-17T18:21:07.886Z,1.50
2017-06-17T18:23:40.400Z,1.10
2017-06-17T18:26:13.789Z,1.70
2017-06-17T18:28:45.619Z,1.70
2017-06-17T18:31:19.878Z,2.77
2017-06-17T18:33:47.486Z,2.83
2017-06-17T18:36:15.077Z,1.92
2017-06-17T18:38:42.663Z,2.20
2017-06-17T18:41:10.248Z,2.00
2017-06-17T18:43:37.825Z,2.30
2017-06-17T18:46:05.444Z,2.07
2017-06-17T18:48:37.863Z,2.43
2017-06-17T18:51:06.228Z,2.00
2017-06-17T18:53:33.798Z,2.43
2017-06-17T18:56:01.377Z,2.70
2017-06-17T18:58:28.984Z,2.00
2017-06-17T19:00:56.650Z,2.10
2017-06-17T19:03:27.964Z,1.60
2017-06-17T19:05:55.528Z,1.67
2017-06-17T19:08:23.108Z,1.50
2017-06-17T19:10:50.691Z,2.00
2017-06-17T19:13:18.301Z,1.57
2017-06-17T19:15:45.932Z,1.40
2017-06-17T19:18:14.300Z,1.27
2017-06-17T19:20:42.654Z,1.50
2017-06-17T19:23:10.216Z,1.60
2017-06-17T19:25:37.839Z,1.47
2017-06-17T19:28:05.419Z,1.80
2017-06-17T19:30:34.068Z,1.70
2017-06-17T19:33:01.645Z,1.70
2017-06-17T19:35:29.230Z,1.73
2017-06-17T19:37:57.095Z,2.00
2017-06-17T19:40:24.702Z,1.73
2017-06-17T19:42:52.305Z,2.03
2017-06-17T19:45:19.892Z,2.60
2017-06-17T19:47:47.466Z,2.10
2017-06-17T19:50:15.818Z,2.17
2017-06-17T19:52:43.395Z,1.70
2017-06-17T19:55:10.996Z,2.10
2017-06-17T19:57:38.569Z,2.10
2017-06-17T20:00:06.458Z,1.63
2017-06-17T20:02:34.036Z,2.10
2017-06-17T20:05:02.393Z,1.93
2017-06-17T20:07:29.991Z,2.00
2017-06-17T20:09:57.714Z,1.90
2017-06-17T20:12:25.302Z,2.30
2017-06-17T20:14:53.656Z,1.93
2017-06-17T20:17:21.255Z,1.80
2017-06-17T20:19:48.853Z,1.63
2017-06-17T20:22:22.145Z,1.90
2017-06-17T20:24:49.744Z,1.80
2017-06-17T20:27:17.309Z,2.80
2017-06-17T20:29:45.673Z,2.20
2017-06-17T20:32:13.280Z,2.43
2017-06-17T20:34:40.867Z,2.60
2017-06-17T20:37:08.432Z,2.30
2017-06-17T20:39:36.070Z,2.30
2017-06-17T20:42:03.655Z,2.40
2017-06-17T20:44:31.280Z,2.87
2017-06-17T20:46:58.864Z,2.67
2017-06-17T20:49:26.444Z,2.70
2017-06-17T20:51:54.042Z,2.50
2017-06-17T20:54:21.644Z,2.47
2017-06-17T20:56:49.245Z,2.30
2017-06-17T20:59:17.576Z,2.87
2017-06-17T21:01:45.153Z,3.30
2017-06-17T21:04:12.750Z,2.77
2017-06-17T21:06:40.321Z,2.57
2017-06-17T21:09:07.893Z,2.53
2017-06-17T21:11:35.467Z,2.33
2017-06-17T21:14:03.077Z,2.53
2017-06-17T21:16:31.468Z,3.27
2017-06-17T21:18:59.035Z,2.63
2017-06-17T21:21:26.643Z,2.53
2017-06-17T21:23:54.212Z,2.40
2017-06-17T21:26:21.805Z,2.60
2017-06-17T21:28:49.384Z,2.80
2017-06-17T21:31:16.998Z,2.70
2017-06-17T21:33:45.345Z,3.23
2017-06-17T21:36:12.953Z,3.00
2017-06-17T21:38:40.559Z,2.70
2017-06-17T21:41:08.137Z,2.40
2017-06-17T21:43:35.748Z,2.20
2017-06-17T21:46:03.333Z,2.53
2017-06-17T21:48:30.945Z,2.70
2017-06-17T21:50:59.281Z,3.00
2017-06-17T21:53:26.855Z,2.70
2017-06-17T21:55:54.458Z,2.63
2017-06-17T21:58:22.030Z,2.97
2017-06-17T22:00:49.639Z,2.57
2017-06-17T22:03:17.211Z,2.20
2017-06-17T22:05:44.773Z,2.60
2017-06-17T22:08:12.365Z,2.50
2017-06-17T22:10:39.941Z,2.20
2017-06-17T22:13:07.542Z,2.73
2017-06-17T22:15:35.866Z,2.77
2017-06-17T22:18:03.465Z,2.57
2017-06-17T22:20:31.037Z,2.67
2017-06-17T22:22:58.633Z,2.80
2017-06-17T22:25:26.292Z,2.50
2017-06-17T22:27:53.871Z,2.90
2017-06-17T22:30:21.443Z,2.93
2017-06-17T22:32:49.045Z,2.20
2017-06-17T22:35:16.641Z,2.83
2017-06-17T22:37:44.207Z,2.47
2017-06-17T22:40:11.808Z,2.77
2017-06-17T22:42:39.398Z,2.87
2017-06-17T22:45:06.990Z,2.83
2017-06-17T22:47:34.578Z,2.70
2017-06-17T22:50:02.161Z,2.97
2017-06-17T22:52:29.753Z,2.70
2017-06-17T22:54:57.303Z,3.20
2017-06-17T22:57:24.914Z,2.50
2017-06-17T22:59:52.494Z,2.90
2017-06-17T23:02:20.079Z,2.93
2017-06-17T23:04:47.668Z,2.73
2017-06-17T23:07:15.231Z,3.10
2017-06-17T23:09:42.806Z,2.50
2017-06-17T23:12:10.374Z,2.40
2017-06-17T23:14:37.973Z,2.67
2017-06-17T23:17:05.547Z,3.03
2017-06-17T23:19:33.131Z,3.17
2017-06-17T23:22:01.570Z,2.80
2017-06-17T23:24:29.171Z,3.10
2017-06-17T23:26:56.773Z,2.67
2017-06-17T23:29:24.352Z,2.87
2017-06-17T23:31:51.947Z,2.90
2017-06-17T23:34:19.516Z,3.00
2017-06-17T23:36:47.090Z,2.80
2017-06-17T23:39:14.675Z,2.80
2017-06-17T23:41:42.267Z,2.83
2017-06-17T23:44:09.869Z,3.13
2017-06-17T23:46:38.193Z,3.00
2017-06-17T23:49:05.782Z,2.67
2017-06-17T23:51:33.358Z,3.00
2017-06-17T23:54:00.940Z,2.80
2017-06-17T23:56:28.523Z,2.80
2017-06-17T23:58:56.102Z,2.97
